Nautilus — P3QQ7 — position and weather

sailwx.info

Track history (hours):
 
Tides and Currents Weather Stations Pressure Air Temp Water Temp Dewpoint Dewpoint Depression Visibility Wind Speed Wind Dir Waves Ship Positions

Nautilus

Last reported at 2014-Oct-18 13:03 UTC. Time now 2014-Oct-21 16:56 UTC.
Position N 32°27' E 016°37'.

Length 176 m; draft 11.8 m.

Type: Tanker. MMSI: 212434000.

Date/timePositionNaut miles runAvg speedWind from/ knotsBaromVisibWave heightAir tempDewpointWater temp
2014-Oct-18 13:03N 32°27' E 016°37'0 0.3
2014-Oct-18 12:33N 32°27' E 016°37'0 0.3
2014-Oct-18 11:27N 32°27' E 016°37'1 0.4
2014-Oct-18 09:09N 32°26' E 016°36'1 0.4
2014-Oct-18 07:03N 32°26' E 016°35'0 0.5
2014-Oct-18 06:06N 32°26' E 016°35'5 0.4
2014-Oct-17 17:28N 32°23' E 016°39'2110.8
2014-Oct-17 15:32N 32°43' E 016°45'0 0.3
2014-Oct-17 14:32N 32°43' E 016°45'0 0.3
2014-Oct-17 13:32N 32°43' E 016°44'1 0.5
2014-Oct-17 12:26N 32°43' E 016°44'0 0.5
2014-Oct-17 11:32N 32°43' E 016°43'1 0.6
2014-Oct-17 10:20N 32°43' E 016°42'0 0.5
2014-Oct-17 09:26N 32°42' E 016°42'8 0.5
2014-Oct-16 19:05N 32°35' E 016°42'0 0.6
2014-Oct-16 18:32N 32°34' E 016°43'5 0.6
2014-Oct-16 11:32N 32°30' E 016°43'138 5.9
2014-Oct-15 12:04N 34°20' E 015°03'2112.3
2014-Oct-15 10:20N 34°37' E 014°47'912.2
2014-Oct-15 09:33N 34°44' E 014°41'2412.1
2014-Oct-15 07:33N 35°04' E 014°24'1311.8
2014-Oct-15 06:29N 35°14' E 014°14'1111.7
2014-Oct-15 05:30N 35°23' E 014°06'1111.6
2014-Oct-15 04:33N 35°32' E 013°57'1211.7
2014-Oct-15 03:33N 35°40' E 013°47'1212.0
2014-Oct-15 02:33N 35°48' E 013°36'1312.4
2014-Oct-15 01:32N 35°57' E 013°25'1212.3
2014-Oct-15 00:33N 36°05' E 013°14'1212.4
2014-Oct-14 23:33N 36°13' E 013°02'1212.2
2014-Oct-14 22:33N 36°20' E 012°50'1212.0
2014-Oct-14 21:33N 36°28' E 012°39'1212.1
2014-Oct-14 20:33N 36°38' E 012°30'1212.3
2014-Oct-14 19:33N 36°47' E 012°19'1212.4
2014-Oct-14 18:33N 36°55' E 012°08'1212.4
2014-Oct-14 17:33N 37°02' E 011°55'1312.7
2014-Oct-14 16:33N 37°08' E 011°41'1412.4
2014-Oct-14 15:24N 37°15' E 011°26'2212.1
2014-Oct-14 13:33N 37°25' E 011°00'  
2014-Oct-11 08:16N 36°25' W 008°57'  
Track history (hours):
 
Tides and Currents Weather Stations Pressure Air Temp Water Temp Dewpoint Dewpoint Depression Visibility Wind Speed Wind Dir Waves Ship Positions

Nautilus

Last reported at 2014-Oct-18 13:03 UTC. Time now 2014-Oct-21 16:56 UTC.
Position N 32°27' E 016°37'.

Length 176 m; draft 11.8 m.

Type: Tanker. MMSI: 212434000.

Date/timePositionNaut miles runAvg speedWind from/ knotsBaromVisibWave heightAir tempDewpointWater temp
2014-Oct-18 13:03N 32°27' E 016°37'0 0.3
2014-Oct-18 12:33N 32°27' E 016°37'0 0.3
2014-Oct-18 11:27N 32°27' E 016°37'1 0.4
2014-Oct-18 09:09N 32°26' E 016°36'1 0.4
2014-Oct-18 07:03N 32°26' E 016°35'0 0.5
2014-Oct-18 06:06N 32°26' E 016°35'5 0.4
2014-Oct-17 17:28N 32°23' E 016°39'2110.8
2014-Oct-17 15:32N 32°43' E 016°45'0 0.3
2014-Oct-17 14:32N 32°43' E 016°45'0 0.3
2014-Oct-17 13:32N 32°43' E 016°44'1 0.5
2014-Oct-17 12:26N 32°43' E 016°44'0 0.5
2014-Oct-17 11:32N 32°43' E 016°43'1 0.6
2014-Oct-17 10:20N 32°43' E 016°42'0 0.5
2014-Oct-17 09:26N 32°42' E 016°42'8 0.5
2014-Oct-16 19:05N 32°35' E 016°42'0 0.6
2014-Oct-16 18:32N 32°34' E 016°43'5 0.6
2014-Oct-16 11:32N 32°30' E 016°43'138 5.9
2014-Oct-15 12:04N 34°20' E 015°03'2112.3
2014-Oct-15 10:20N 34°37' E 014°47'912.2
2014-Oct-15 09:33N 34°44' E 014°41'2412.1
2014-Oct-15 07:33N 35°04' E 014°24'1311.8
2014-Oct-15 06:29N 35°14' E 014°14'1111.7
2014-Oct-15 05:30N 35°23' E 014°06'1111.6
2014-Oct-15 04:33N 35°32' E 013°57'1211.7
2014-Oct-15 03:33N 35°40' E 013°47'1212.0
2014-Oct-15 02:33N 35°48' E 013°36'1312.4
2014-Oct-15 01:32N 35°57' E 013°25'1212.3
2014-Oct-15 00:33N 36°05' E 013°14'1212.4
2014-Oct-14 23:33N 36°13' E 013°02'1212.2
2014-Oct-14 22:33N 36°20' E 012°50'1212.0
2014-Oct-14 21:33N 36°28' E 012°39'1212.1
2014-Oct-14 20:33N 36°38' E 012°30'1212.3
2014-Oct-14 19:33N 36°47' E 012°19'1212.4
2014-Oct-14 18:33N 36°55' E 012°08'1212.4
2014-Oct-14 17:33N 37°02' E 011°55'1312.7
2014-Oct-14 16:33N 37°08' E 011°41'1412.4
2014-Oct-14 15:24N 37°15' E 011°26'2212.1
2014-Oct-14 13:33N 37°25' E 011°00'  
2014-Oct-11 08:16N 36°25' W 008°57'  

Dump ship's entire track history